Time;durP1;ratioP1;P1;durP2;ratioP2;P2;SDS_P1;SDS_P2;PMS_P1;PMS_P2;Temp;Humidity;BMP_temperature;BMP_pressure;BME280_temperature;BME280_humidity;BME280_pressure;Samples;Min_cycle;Max_cycle;Signal;HPM_P1;HPM_P2
2022/08/07 00:01:31;;;;;;;9.48;7.45;;;15.80;99.90;;;;;;5011966;28;20038;-60
2022/08/07 00:03:57;;;;;;;9.40;7.45;;;15.70;99.90;;;;;;5011765;28;20057;-59
2022/08/07 00:06:23;;;;;;;8.32;6.97;;;15.70;99.90;;;;;;5044206;28;20140;-59
2022/08/07 00:08:49;;;;;;;10.10;7.28;;;15.70;99.90;;;;;;4995280;28;20365;-59
2022/08/07 00:11:14;;;;;;;9.55;7.80;;;15.70;99.90;;;;;;5012029;28;20475;-59
2022/08/07 00:13:43;;;;;;;12.10;7.22;;;15.70;99.90;;;;;;5012311;28;20381;-59
2022/08/07 00:16:09;;;;;;;10.25;7.38;;;15.60;99.90;;;;;;5011930;28;20073;-59
2022/08/07 00:18:35;;;;;;;11.93;7.53;;;15.60;99.90;;;;;;5011144;28;20042;-59
2022/08/07 00:21:04;;;;;;;12.57;8.20;;;15.60;99.90;;;;;;5011775;28;20042;-59
2022/08/07 00:23:31;;;;;;;11.65;8.63;;;15.70;99.90;;;;;;5012086;28;20069;-60
2022/08/07 00:25:58;;;;;;;9.00;7.65;;;15.50;99.90;;;;;;5010794;28;20407;-59
2022/08/07 00:28:24;;;;;;;9.88;7.80;;;15.50;99.90;;;;;;5010837;28;20108;-60
2022/08/07 00:30:49;;;;;;;9.68;7.38;;;15.50;99.90;;;;;;5011990;28;20581;-59
2022/08/07 00:33:15;;;;;;;10.07;7.65;;;15.40;99.90;;;;;;5043198;28;20048;-60
2022/08/07 00:35:41;;;;;;;12.60;8.00;;;15.40;99.90;;;;;;5011853;28;20152;-59
2022/08/07 00:38:07;;;;;;;9.88;7.95;;;15.40;99.90;;;;;;5011569;28;20088;-59
2022/08/07 00:40:33;;;;;;;10.05;7.97;;;15.30;99.90;;;;;;5011760;28;20089;-60
2022/08/07 00:42:58;;;;;;;8.90;6.88;;;15.30;99.90;;;;;;5011180;28;20522;-59
2022/08/07 00:45:24;;;;;;;9.75;7.88;;;15.30;99.90;;;;;;5011869;28;20180;-59
2022/08/07 00:47:50;;;;;;;9.60;7.80;;;15.20;99.90;;;;;;5011439;28;20387;-59
2022/08/07 00:50:16;;;;;;;10.95;8.00;;;15.30;99.90;;;;;;5010427;28;20133;-60
2022/08/07 00:52:42;;;;;;;10.35;7.90;;;15.20;99.90;;;;;;5010459;28;20050;-59
2022/08/07 00:55:08;;;;;;;9.07;7.20;;;15.20;99.90;;;;;;5011347;28;20052;-59
2022/08/07 00:57:34;;;;;;;10.00;6.90;;;15.20;99.90;;;;;;5043435;28;20112;-60
2022/08/07 01:00:00;;;;;;;9.27;6.82;;;15.20;99.90;;;;;;4993812;28;20050;-63
2022/08/07 01:02:25;;;;;;;9.32;6.93;;;15.20;99.90;;;;;;5011680;28;20085;-58
2022/08/07 01:04:51;;;;;;;9.07;6.20;;;15.20;99.90;;;;;;5010247;28;20369;-59
2022/08/07 01:07:20;;;;;;;9.48;7.30;;;15.20;99.90;;;;;;5012964;28;20555;-59
2022/08/07 01:09:47;;;;;;;8.68;7.05;;;15.10;99.90;;;;;;5015718;28;20084;-59
2022/08/07 01:12:16;;;;;;;9.70;7.32;;;15.10;99.90;;;;;;5015301;28;20042;-59
2022/08/07 01:14:43;;;;;;;9.43;7.00;;;15.10;99.90;;;;;;5015542;28;20038;-59
2022/08/07 01:17:10;;;;;;;10.45;7.40;;;15.10;99.90;;;;;;5015283;28;20087;-60
2022/08/07 01:19:37;;;;;;;8.25;6.68;;;15.00;99.90;;;;;;5015699;28;20042;-59
2022/08/07 01:22:03;;;;;;;10.00;7.28;;;15.00;99.90;;;;;;5013862;28;20104;-62
2022/08/07 01:24:29;;;;;;;10.65;6.65;;;15.10;99.90;;;;;;5014178;28;20042;-59
2022/08/07 01:26:55;;;;;;;9.18;6.68;;;15.00;99.90;;;;;;5015402;28;20053;-58
2022/08/07 01:29:26;;;;;;;8.45;6.53;;;15.00;99.90;;;;;;5014876;28;20655;-59
2022/08/07 01:31:53;;;;;;;9.20;6.38;;;15.00;99.90;;;;;;5015324;28;20042;-59
2022/08/07 01:34:19;;;;;;;9.35;6.20;;;15.00;99.90;;;;;;5014801;28;20139;-59
2022/08/07 01:36:48;;;;;;;8.75;5.88;;;15.00;99.90;;;;;;5015023;28;20499;-60
2022/08/07 01:39:14;;;;;;;7.40;5.13;;;14.90;99.90;;;;;;5013594;28;20446;-59
2022/08/07 01:41:42;;;;;;;7.05;5.60;;;14.90;99.90;;;;;;5013920;28;20112;-60
2022/08/07 01:44:09;;;;;;;7.25;5.75;;;14.90;99.90;;;;;;5046169;28;20480;-59
2022/08/07 01:46:35;;;;;;;8.48;6.53;;;14.90;99.90;;;;;;5014632;28;20144;-59
2022/08/07 01:49:01;;;;;;;7.72;6.13;;;14.90;99.90;;;;;;5013965;28;20377;-59
2022/08/07 01:51:27;;;;;;;8.05;5.90;;;14.90;99.90;;;;;;5014581;28;20116;-59
2022/08/07 01:54:01;;;;;;;8.60;6.35;;;14.90;99.90;;;;;;5014236;28;20086;-59
2022/08/07 01:57:24;;;;;;;7.88;5.65;;;14.90;99.90;;;;;;5013366;28;20060;-59
2022/08/07 02:00:11;;;;;;;7.43;5.75;;;14.80;99.90;;;;;;5027878;28;20066;-59
2022/08/07 02:02:49;;;;;;;7.45;5.25;;;14.80;99.90;;;;;;5014742;28;20180;-59
2022/08/07 02:05:26;;;;;;;10.18;5.90;;;14.80;99.90;;;;;;5013271;28;20061;-60
2022/08/07 02:07:53;;;;;;;8.40;5.78;;;14.80;99.90;;;;;;5014670;28;20045;-59
2022/08/07 02:10:23;;;;;;;7.85;5.70;;;14.80;99.90;;;;;;5013941;28;20037;-59
2022/08/07 02:12:50;;;;;;;9.80;6.10;;;14.70;99.90;;;;;;5013586;28;20149;-59
2022/08/07 02:15:22;;;;;;;8.25;5.75;;;14.70;99.90;;;;;;5045961;28;20184;-59
2022/08/07 02:17:49;;;;;;;11.68;5.82;;;14.70;99.90;;;;;;5014042;28;20076;-59
2022/08/07 02:20:16;;;;;;;8.32;5.55;;;14.60;99.90;;;;;;5045586;28;20046;-59
2022/08/07 02:22:44;;;;;;;7.68;5.95;;;14.60;99.90;;;;;;5014405;28;20050;-59
2022/08/07 02:25:12;;;;;;;10.25;6.18;;;14.60;99.90;;;;;;5014171;28;20128;-61
2022/08/07 02:27:39;;;;;;;8.90;5.78;;;14.60;99.90;;;;;;5014120;28;20056;-59
2022/08/07 02:30:05;;;;;;;7.10;5.63;;;14.60;99.90;;;;;;4996693;28;20052;-59
2022/08/07 02:32:32;;;;;;;6.95;5.78;;;14.50;99.90;;;;;;5013805;28;20391;-59
2022/08/07 02:34:59;;;;;;;8.73;5.90;;;14.50;99.90;;;;;;5045998;28;20089;-59
2022/08/07 02:37:26;;;;;;;7.38;5.63;;;14.50;99.90;;;;;;5013641;28;20050;-60
2022/08/07 02:39:53;;;;;;;9.13;6.13;;;14.50;99.90;;;;;;5012795;28;20487;-59
2022/08/07 02:42:20;;;;;;;10.00;6.15;;;14.50;99.90;;;;;;5013548;28;20073;-59
2022/08/07 02:44:48;;;;;;;11.38;6.72;;;14.50;99.90;;;;;;5012995;28;20081;-59
2022/08/07 02:47:16;;;;;;;6.95;5.72;;;14.40;99.90;;;;;;5012228;28;20058;-62
2022/08/07 02:49:43;;;;;;;8.15;5.93;;;14.50;99.90;;;;;;4996637;28;20076;-59
2022/08/07 02:52:14;;;;;;;9.02;5.75;;;14.50;99.90;;;;;;5013951;28;20050;-59
2022/08/07 02:54:42;;;;;;;9.82;5.97;;;14.40;99.90;;;;;;5013764;28;20073;-59
2022/08/07 02:57:12;;;;;;;8.95;5.95;;;14.40;99.90;;;;;;5013606;28;20050;-59
2022/08/07 02:59:47;;;;;;;8.20;6.13;;;14.40;99.90;;;;;;5013409;28;20185;-59
2022/08/07 03:02:14;;;;;;;11.18;5.75;;;14.40;99.90;;;;;;5013570;28;20064;-59
2022/08/07 03:04:43;;;;;;;7.72;5.57;;;14.40;99.90;;;;;;5013259;28;20089;-59
2022/08/07 03:07:09;;;;;;;8.00;5.70;;;14.30;99.90;;;;;;5013524;28;20052;-58
2022/08/07 03:09:35;;;;;;;7.55;5.55;;;14.30;99.90;;;;;;5012979;28;20050;-59
2022/08/07 03:12:05;;;;;;;8.02;5.40;;;14.30;99.90;;;;;;5012258;28;20140;-58
2022/08/07 03:14:35;;;;;;;6.65;4.90;;;14.40;99.90;;;;;;5012602;28;20578;-59
2022/08/07 03:17:02;;;;;;;8.23;5.68;;;14.30;99.90;;;;;;5013314;28;20132;-58
2022/08/07 03:19:28;;;;;;;9.50;5.60;;;14.30;99.90;;;;;;5011457;28;20067;-58
2022/08/07 03:21:55;;;;;;;7.28;5.03;;;14.30;99.90;;;;;;5013008;28;20050;-60
2022/08/07 03:24:21;;;;;;;8.23;5.00;;;14.30;99.90;;;;;;5012715;28;20056;-62
2022/08/07 03:26:50;;;;;;;8.23;5.40;;;14.40;99.90;;;;;;5012923;28;20400;-59
2022/08/07 03:29:17;;;;;;;9.93;5.15;;;14.40;99.90;;;;;;5011891;28;20523;-59
2022/08/07 03:31:46;;;;;;;8.32;5.25;;;14.30;99.90;;;;;;5044436;28;20136;-59
2022/08/07 03:34:13;;;;;;;9.10;5.60;;;14.40;99.90;;;;;;5044766;28;20049;-59
2022/08/07 03:36:40;;;;;;;8.63;5.30;;;14.30;99.90;;;;;;5012466;28;20049;-59
2022/08/07 03:39:10;;;;;;;6.25;4.78;;;14.30;99.90;;;;;;5012784;28;20049;-59
2022/08/07 03:41:37;;;;;;;6.53;4.78;;;14.30;99.90;;;;;;5011483;28;20058;-60
2022/08/07 03:44:03;;;;;;;10.23;5.40;;;14.20;99.90;;;;;;5012682;28;20054;-59
2022/08/07 03:46:31;;;;;;;6.60;4.72;;;14.20;99.90;;;;;;5010840;28;20054;-59
2022/08/07 03:48:57;;;;;;;7.28;4.90;;;14.20;99.90;;;;;;5012683;28;20092;-60
2022/08/07 03:51:25;;;;;;;6.75;4.43;;;14.20;99.90;;;;;;5012677;28;20054;-63
2022/08/07 03:53:51;;;;;;;7.40;4.97;;;14.20;99.90;;;;;;5012399;28;20626;-59
2022/08/07 03:56:22;;;;;;;8.00;5.22;;;14.20;99.90;;;;;;5012442;28;20124;-60
2022/08/07 03:58:49;;;;;;;8.73;4.97;;;14.20;99.90;;;;;;5011949;28;20054;-59
2022/08/07 04:01:16;;;;;;;7.35;5.00;;;14.20;99.90;;;;;;5012194;28;20054;-59
2022/08/07 04:03:42;;;;;;;8.05;5.45;;;14.20;99.90;;;;;;5011817;28;20416;-59
2022/08/07 04:06:09;;;;;;;8.38;4.70;;;14.10;99.90;;;;;;5012113;28;20045;-59
2022/08/07 04:08:38;;;;;;;7.20;5.00;;;14.10;99.90;;;;;;5011782;28;20049;-61
2022/08/07 04:11:04;;;;;;;7.03;5.30;;;14.10;99.90;;;;;;5012289;28;20118;-59
2022/08/07 04:13:31;;;;;;;7.75;4.70;;;14.10;99.90;;;;;;5011811;28;20046;-60
2022/08/07 04:15:57;;;;;;;8.75;4.72;;;14.10;99.90;;;;;;5012047;28;20136;-59
2022/08/07 04:18:23;;;;;;;8.35;5.10;;;14.10;99.90;;;;;;5010996;28;20128;-59
2022/08/07 04:20:49;;;;;;;7.95;5.32;;;14.10;99.90;;;;;;5011624;28;20061;-59
2022/08/07 04:23:15;;;;;;;7.07;5.45;;;14.10;99.90;;;;;;5012146;28;20048;-59
2022/08/07 04:25:42;;;;;;;8.15;5.18;;;14.10;99.90;;;;;;5011259;28;20499;-59
2022/08/07 04:28:09;;;;;;;9.55;5.45;;;14.10;99.90;;;;;;5012058;28;20042;-59
2022/08/07 04:30:35;;;;;;;7.82;4.85;;;14.10;99.90;;;;;;5011541;28;20077;-59
2022/08/07 04:33:07;;;;;;;8.52;4.80;;;14.10;99.90;;;;;;5011983;28;20062;-59
2022/08/07 04:35:33;;;;;;;7.28;4.97;;;14.10;99.90;;;;;;5011427;28;20394;-59
2022/08/07 04:38:02;;;;;;;7.30;4.90;;;14.10;99.90;;;;;;5011847;28;20061;-59
2022/08/07 04:40:28;;;;;;;8.05;4.50;;;14.10;99.90;;;;;;5009971;28;20120;-59
2022/08/07 04:42:54;;;;;;;8.15;5.25;;;14.10;99.90;;;;;;5011377;28;20136;-60
2022/08/07 04:45:20;;;;;;;8.32;5.07;;;14.10;99.90;;;;;;5011697;28;20042;-58
2022/08/07 04:47:59;;;;;;;9.18;5.40;;;14.10;99.90;;;;;;5009694;28;20134;-59
2022/08/07 04:50:33;;;;;;;8.00;4.97;;;14.20;99.90;;;;;;5011805;28;20053;-59
2022/08/07 04:53:07;;;;;;;9.67;5.23;;;14.30;99.90;;;;;;5011875;28;20092;-57
2022/08/07 04:55:58;;;;;;;6.15;4.32;;;14.50;99.90;;;;;;5011409;28;20705;-61
2022/08/07 04:58:48;;;;;;;7.15;4.72;;;15.00;99.90;;;;;;5011606;28;20060;-59
2022/08/07 05:01:27;;;;;;;6.55;4.35;;;15.20;99.90;;;;;;5011162;28;20571;-58
2022/08/07 05:04:32;;;;;;;6.55;4.50;;;15.20;99.90;;;;;;5010212;28;20124;-58
2022/08/07 05:07:11;;;;;;;7.78;4.50;;;15.20;99.90;;;;;;5008279;28;20069;-59
2022/08/07 05:09:59;;;;;;;5.70;4.32;;;15.30;99.90;;;;;;5010860;28;20133;-59
2022/08/07 05:12:35;;;;;;;6.60;4.13;;;15.90;99.90;;;;;;5011612;28;20042;-59
2022/08/07 05:15:24;;;;;;;6.28;4.32;;;16.50;99.90;;;;;;5011640;28;20045;-59
2022/08/07 05:17:57;;;;;;;6.00;3.90;;;17.20;99.90;;;;;;5010017;28;20049;-60
2022/08/07 05:20:31;;;;;;;5.80;3.85;;;17.70;99.90;;;;;;5011468;28;20041;-63
2022/08/07 05:23:02;;;;;;;5.57;4.10;;;18.10;99.90;;;;;;5010652;28;20484;-59
2022/08/07 05:25:30;;;;;;;5.05;3.83;;;18.40;99.90;;;;;;5011555;28;20041;-60
2022/08/07 05:27:57;;;;;;;7.07;3.97;;;18.90;99.60;;;;;;5010825;28;20125;-59
2022/08/07 05:30:24;;;;;;;6.75;3.85;;;19.40;99.10;;;;;;5010931;28;20522;-59
2022/08/07 05:32:51;;;;;;;7.20;3.80;;;19.70;98.20;;;;;;5010981;28;20438;-59
2022/08/07 05:35:18;;;;;;;5.32;3.20;;;19.80;97.20;;;;;;5010957;28;20104;-60
2022/08/07 05:37:45;;;;;;;5.35;3.80;;;19.80;97.10;;;;;;5010903;28;20443;-59
2022/08/07 05:40:12;;;;;;;6.88;3.92;;;19.90;97.50;;;;;;5011059;28;20050;-59
2022/08/07 05:42:38;;;;;;;4.80;3.38;;;20.20;96.20;;;;;;5010966;28;20140;-59
2022/08/07 05:45:05;;;;;;;5.82;3.30;;;20.00;97.30;;;;;;5010826;28;20129;-59
2022/08/07 05:47:32;;;;;;;5.15;3.15;;;20.20;96.40;;;;;;5009695;28;20098;-58
2022/08/07 05:49:59;;;;;;;4.35;3.22;;;20.70;96.20;;;;;;5010601;28;20228;-59
2022/08/07 05:52:25;;;;;;;4.32;3.00;;;21.50;95.90;;;;;;5011436;28;20057;-59
2022/08/07 05:54:51;;;;;;;5.25;3.15;;;22.20;94.10;;;;;;5014308;28;20050;-59
2022/08/07 05:57:17;;;;;;;5.18;3.30;;;22.90;93.40;;;;;;5014660;28;20056;-59
2022/08/07 05:59:45;;;;;;;5.07;3.35;;;23.40;91.40;;;;;;5014135;28;20065;-63
2022/08/07 06:02:14;;;;;;;4.82;3.00;;;;;;;;;;5014103;28;20495;-59
2022/08/07 06:04:44;;;;;;;5.07;3.00;;;24.20;91.00;;;;;;5014506;28;20093;-59
2022/08/07 06:07:10;;;;;;;3.47;2.85;;;25.60;88.60;;;;;;5014541;28;20112;-59
2022/08/07 06:09:36;;;;;;;5.75;3.08;;;25.80;86.90;;;;;;5014605;28;20038;-59
2022/08/07 06:12:03;;;;;;;5.15;3.10;;;26.10;87.80;;;;;;5013927;28;20046;-61
2022/08/07 06:14:29;;;;;;;5.30;2.92;;;26.40;86.00;;;;;;5014435;28;20053;-60
2022/08/07 06:16:56;;;;;;;4.35;2.78;;;26.60;85.80;;;;;;5013962;28;20091;-60
2022/08/07 06:19:22;;;;;;;4.13;2.90;;;26.90;85.10;;;;;;5014215;28;20042;-59
2022/08/07 06:21:48;;;;;;;5.35;2.90;;;27.00;83.50;;;;;;5013609;28;20147;-60
2022/08/07 06:24:14;;;;;;;3.53;2.58;;;27.10;83.40;;;;;;5046006;28;20049;-60
2022/08/07 06:26:41;;;;;;;3.72;2.75;;;27.30;83.00;;;;;;5014013;28;20487;-60
2022/08/07 06:29:07;;;;;;;5.70;2.90;;;27.40;82.40;;;;;;5013648;28;20109;-59
2022/08/07 06:31:34;;;;;;;4.95;2.50;;;27.60;83.10;;;;;;5014046;28;20058;-59
2022/08/07 06:34:00;;;;;;;3.80;2.60;;;27.80;82.50;;;;;;5013681;28;20094;-60
2022/08/07 06:36:25;;;;;;;3.58;2.15;;;27.90;81.60;;;;;;5012354;28;20164;-59
2022/08/07 06:38:53;;;;;;;4.97;2.30;;;28.20;81.60;;;;;;5013165;28;20115;-59
2022/08/07 06:41:39;;;;;;;5.13;2.75;;;28.30;80.60;;;;;;5013848;28;20057;-60
2022/08/07 06:44:05;;;;;;;4.18;2.40;;;28.20;80.00;;;;;;5013184;28;20491;-60
2022/08/07 06:46:31;;;;;;;3.67;2.53;;;28.40;81.60;;;;;;5012475;28;20054;-59
2022/08/07 06:48:57;;;;;;;4.32;2.60;;;28.60;79.70;;;;;;5013455;28;20092;-60
2022/08/07 06:51:27;;;;;;;3.42;2.22;;;28.70;79.60;;;;;;5013678;28;20084;-60
2022/08/07 06:53:56;;;;;;;4.43;2.20;;;28.70;79.10;;;;;;5013355;28;20447;-60
2022/08/07 06:56:38;;;;;;;3.55;2.50;;;28.70;79.10;;;;;;5013352;28;20049;-60
2022/08/07 06:59:11;;;;;;;5.22;2.47;;;29.00;79.00;;;;;;5013084;28;20057;-60
2022/08/07 07:01:38;;;;;;;5.25;2.50;;;29.20;78.70;;;;;;5013501;28;20187;-60
2022/08/07 07:04:04;;;;;;;4.32;2.28;;;29.40;78.50;;;;;;5013019;28;20452;-59
2022/08/07 07:06:33;;;;;;;4.47;2.03;;;29.70;78.80;;;;;;5013359;28;20133;-59
2022/08/07 07:09:25;;;;;;;3.13;2.03;;;29.90;77.80;;;;;;5013037;28;20042;-59
2022/08/07 07:12:03;;;;;;;2.85;2.10;;;30.00;77.30;;;;;;5013364;28;20045;-61
2022/08/07 07:14:35;;;;;;;3.47;1.90;;;30.20;77.80;;;;;;5012064;28;20081;-59
2022/08/07 07:17:08;;;;;;;2.78;1.90;;;30.40;77.70;;;;;;5012745;28;20046;-59
2022/08/07 07:19:41;;;;;;;3.95;1.80;;;30.40;76.20;;;;;;5013105;28;20045;-59
2022/08/07 07:22:08;;;;;;;2.60;1.88;;;30.50;76.30;;;;;;5011576;28;20069;-60
2022/08/07 07:24:35;;;;;;;3.60;1.85;;;30.40;75.80;;;;;;5013016;28;20076;-59
2022/08/07 07:27:05;;;;;;;2.53;1.65;;;30.40;77.10;;;;;;5012642;28;20073;-60
2022/08/07 07:29:36;;;;;;;2.42;1.90;;;30.70;75.90;;;;;;5013029;28;20411;-60
2022/08/07 07:32:07;;;;;;;2.10;1.80;;;30.80;75.80;;;;;;5012598;28;20072;-59
2022/08/07 07:34:35;;;;;;;3.22;1.90;;;31.00;75.80;;;;;;5012878;28;20491;-59
2022/08/07 07:37:02;;;;;;;2.47;1.90;;;31.20;76.10;;;;;;5011123;28;20136;-59
2022/08/07 07:39:30;;;;;;;3.22;1.95;;;31.40;75.50;;;;;;5044610;28;20041;-59
2022/08/07 07:41:56;;;;;;;3.20;2.08;;;31.30;76.00;;;;;;5012777;28;20053;-64
2022/08/07 07:44:23;;;;;;;3.53;2.45;;;31.20;75.70;;;;;;5012997;28;20046;-61
2022/08/07 07:46:50;;;;;;;3.10;2.30;;;31.30;75.70;;;;;;5012303;28;20068;-61
2022/08/07 07:49:18;;;;;;;3.95;2.47;;;31.30;75.50;;;;;;5011994;28;20060;-61
2022/08/07 07:51:47;;;;;;;3.53;2.40;;;31.40;76.00;;;;;;5011683;28;20141;-61
2022/08/07 07:54:15;;;;;;;3.40;2.25;;;31.50;76.20;;;;;;5044158;28;20187;-62
2022/08/07 07:56:43;;;;;;;4.90;2.60;;;31.60;74.60;;;;;;5011399;28;20057;-61
2022/08/07 07:59:11;;;;;;;3.80;2.80;;;31.90;74.60;;;;;;5011466;28;20549;-62
2022/08/07 08:01:42;;;;;;;4.50;3.00;;;32.10;74.30;;;;;;5012440;28;20045;-61
2022/08/07 08:04:09;;;;;;;3.83;2.83;;;32.40;72.20;;;;;;5012144;28;20420;-61
2022/08/07 08:06:35;;;;;;;6.00;2.83;;;32.80;72.10;;;;;;5012188;28;20045;-62
2022/08/07 08:09:04;;;;;;;4.65;3.00;;;33.00;71.90;;;;;;5012267;28;20054;-65
2022/08/07 08:11:31;;;;;;;4.35;2.88;;;33.30;71.50;;;;;;5012223;28;20475;-59
2022/08/07 08:13:56;;;;;;;3.53;2.58;;;33.30;71.40;;;;;;5012329;28;20056;-62
2022/08/07 08:16:33;;;;;;;3.60;2.50;;;33.40;71.70;;;;;;5011472;28;20109;-62
2022/08/07 08:19:00;;;;;;;5.47;2.60;;;33.50;71.90;;;;;;5011096;28;20049;-60
2022/08/07 08:27:04;;;;;;;4.55;2.60;;;33.90;71.40;;;;;;5011973;28;20050;-59
2022/08/07 08:29:39;;;;;;;4.20;2.67;;;33.90;70.70;;;;;;5011596;28;20050;-60
2022/08/07 08:32:08;;;;;;;3.75;2.60;;;33.90;70.60;;;;;;5011720;28;20057;-64
2022/08/07 08:34:37;;;;;;;4.07;2.55;;;34.10;70.50;;;;;;5011955;28;20050;-60
2022/08/07 08:37:06;;;;;;;3.78;2.70;;;33.80;69.70;;;;;;5011869;28;20503;-60
2022/08/07 08:39:33;;;;;;;3.28;2.35;;;33.30;70.30;;;;;;5011431;28;20054;-60
2022/08/07 08:42:06;;;;;;;3.85;2.67;;;32.90;70.30;;;;;;5010813;28;20104;-60
2022/08/07 08:45:02;;;;;;;4.05;2.60;;;32.90;70.70;;;;;;5011776;28;20479;-61
2022/08/07 08:47:33;;;;;;;4.72;2.60;;;32.80;70.70;;;;;;5009847;28;20058;-62
2022/08/07 08:50:09;;;;;;;4.35;2.70;;;32.90;70.80;;;;;;5011566;28;20045;-60
2022/08/07 08:53:20;;;;;;;4.68;2.80;;;32.70;71.40;;;;;;5011927;28;20457;-60
2022/08/07 08:55:56;;;;;;;3.42;2.50;;;32.90;70.40;;;;;;5010308;28;20058;-61
2022/08/07 08:59:13;;;;;;;4.43;2.58;;;33.10;70.00;;;;;;5011079;28;20082;-61
2022/08/07 09:01:49;;;;;;;4.40;2.35;;;33.30;70.70;;;;;;5010383;28;20061;-59
2022/08/07 09:04:27;;;;;;;3.95;2.90;;;33.40;70.40;;;;;;5026417;28;20042;-62
2022/08/07 09:07:17;;;;;;;4.90;2.67;;;33.60;70.20;;;;;;5011700;28;20108;-61
2022/08/07 09:10:10;;;;;;;5.25;2.63;;;33.40;69.90;;;;;;5043248;28;20541;-61
2022/08/07 09:12:51;;;;;;;3.50;2.30;;;33.00;69.80;;;;;;5006287;28;20081;-64
2022/08/07 09:15:35;;;;;;;4.43;2.80;;;33.10;70.40;;;;;;5010831;28;20050;-63
2022/08/07 09:18:51;;;;;;;3.97;2.28;;;33.00;69.40;;;;;;5010624;28;20054;-62
2022/08/07 09:21:46;;;;;;;3.67;2.50;;;33.30;70.40;;;;;;5007242;28;20058;-61
2022/08/07 09:24:33;;;;;;;4.10;2.60;;;33.50;70.00;;;;;;5009850;28;20046;-64
2022/08/07 09:27:34;;;;;;;5.20;2.40;;;33.70;70.50;;;;;;5010022;28;20069;-61
2022/08/07 09:30:06;;;;;;;3.33;2.35;;;33.40;69.60;;;;;;5011308;28;20107;-60
2022/08/07 09:32:51;;;;;;;4.13;2.35;;;32.70;69.90;;;;;;5012445;28;20227;-60
2022/08/07 09:35:43;;;;;;;3.85;2.30;;;32.30;70.40;;;;;;5045320;28;20053;-60
2022/08/07 09:38:13;;;;;;;3.65;2.40;;;31.40;70.10;;;;;;5014436;28;20049;-61
2022/08/07 09:41:03;;;;;;;4.68;2.58;;;30.40;71.20;;;;;;5013786;28;20034;-61
2022/08/07 09:44:07;;;;;;;5.10;2.50;;;29.50;72.10;;;;;;5011687;28;20061;-60
2022/08/07 09:47:07;;;;;;;5.82;2.58;;;29.10;73.20;;;;;;5013296;28;20184;-60
2022/08/07 09:49:50;;;;;;;4.57;2.53;;;28.80;73.10;;;;;;5011986;28;20061;-60
2022/08/07 09:52:41;;;;;;;4.70;2.80;;;28.60;73.20;;;;;;5013578;28;20128;-63
2022/08/07 09:55:34;;;;;;;3.78;2.45;;;28.50;71.70;;;;;;5013402;28;20058;-59
2022/08/07 09:58:09;;;;;;;4.28;2.50;;;28.30;73.00;;;;;;5045914;28;20042;-59
2022/08/07 10:00:56;;;;;;;3.60;2.10;;;28.40;73.20;;;;;;5012060;28;20173;-59
2022/08/07 10:03:49;;;;;;;3.22;2.20;;;28.80;73.00;;;;;;5012660;28;20046;-61
2022/08/07 10:06:46;;;;;;;2.85;2.30;;;28.90;73.30;;;;;;5013760;28;20100;-61
2022/08/07 10:09:36;;;;;;;3.80;2.25;;;29.00;72.60;;;;;;5013317;28;20100;-59
2022/08/07 10:12:29;;;;;;;3.08;2.50;;;29.10;72.10;;;;;;5028680;28;20049;-60
2022/08/07 10:15:28;;;;;;;2.95;2.10;;;29.00;72.00;;;;;;5045146;28;20395;-59
2022/08/07 10:18:07;;;;;;;3.60;2.22;;;28.80;70.60;;;;;;5011499;28;20045;-59
2022/08/07 10:21:07;;;;;;;3.67;2.42;;;28.80;72.00;;;;;;5008225;28;20046;-59
2022/08/07 10:23:57;;;;;;;3.75;2.10;;;28.90;71.90;;;;;;5009770;28;20085;-62
2022/08/07 10:26:37;;;;;;;2.22;1.83;;;29.00;70.40;;;;;;5007925;28;20209;-61
2022/08/07 10:29:12;;;;;;;2.63;1.77;;;29.00;69.00;;;;;;5043274;28;20380;-63
2022/08/07 10:31:59;;;;;;;2.95;2.05;;;29.00;68.10;;;;;;5008030;28;20038;-59
2022/08/07 10:34:36;;;;;;;3.70;2.00;;;28.90;68.40;;;;;;5009767;28;20092;-61
2022/08/07 10:37:28;;;;;;;3.60;2.05;;;28.60;69.50;;;;;;5012986;28;20518;-60
2022/08/07 10:40:18;;;;;;;2.83;2.05;;;28.30;70.20;;;;;;5012362;28;20042;-61
2022/08/07 10:43:14;;;;;;;3.95;1.80;;;28.20;71.20;;;;;;5012637;28;20610;-60
2022/08/07 10:45:54;;;;;;;4.55;2.20;;;28.00;69.70;;;;;;5012348;28;20121;-60
2022/08/07 10:48:47;;;;;;;3.40;2.20;;;28.00;70.30;;;;;;5013664;28;20511;-59
2022/08/07 10:51:41;;;;;;;2.50;1.83;;;27.80;70.20;;;;;;5013787;28;20046;-59
2022/08/07 10:54:54;;;;;;;2.83;1.65;;;27.80;70.80;;;;;;5012533;28;20100;-60
2022/08/07 10:58:01;;;;;;;2.85;1.90;;;27.80;70.70;;;;;;5010539;28;20491;-60
2022/08/07 11:00:35;;;;;;;2.75;1.85;;;27.30;70.70;;;;;;4998658;28;20168;-61
2022/08/07 11:03:09;;;;;;;3.65;2.10;;;27.20;71.70;;;;;;5013611;28;20104;-60
2022/08/07 11:06:01;;;;;;;5.93;2.30;;;27.20;71.80;;;;;;5011548;28;20053;-62
2022/08/07 11:08:58;;;;;;;3.10;2.15;;;27.50;72.40;;;;;;5011528;28;20042;-60
2022/08/07 11:11:44;;;;;;;5.03;2.30;;;27.50;73.30;;;;;;5008429;28;20093;-62
2022/08/07 11:14:25;;;;;;;3.80;1.90;;;27.60;72.10;;;;;;5009839;28;20152;-59
2022/08/07 11:17:03;;;;;;;3.80;1.90;;;27.80;70.90;;;;;;5009532;28;20041;-59
2022/08/07 11:19:44;;;;;;;3.58;2.03;;;27.70;70.80;;;;;;5011476;28;20045;-59
2022/08/07 11:22:32;;;;;;;2.75;1.80;;;27.60;71.20;;;;;;5012763;28;20495;-59
2022/08/07 11:25:07;;;;;;;4.20;2.00;;;27.60;71.90;;;;;;5012438;28;20058;-60
2022/08/07 11:28:11;;;;;;;3.38;1.70;;;27.80;72.10;;;;;;5012355;28;20504;-59
2022/08/07 11:30:57;;;;;;;2.60;2.10;;;27.70;71.40;;;;;;5012731;28;20384;-59
2022/08/07 11:33:48;;;;;;;2.60;1.80;;;27.60;71.00;;;;;;5012517;28;20045;-60
2022/08/07 11:36:42;;;;;;;2.78;1.90;;;27.60;71.20;;;;;;5011735;28;20480;-60
2022/08/07 11:39:20;;;;;;;4.72;2.00;;;27.40;72.60;;;;;;5009201;28;20452;-60
2022/08/07 11:42:14;;;;;;;4.63;2.20;;;27.40;74.40;;;;;;5010906;28;20056;-60
2022/08/07 11:44:55;;;;;;;3.70;1.90;;;27.70;74.30;;;;;;5009463;28;20589;-59
2022/08/07 11:48:10;;;;;;;2.72;1.90;;;27.90;73.80;;;;;;5009668;28;20572;-59
2022/08/07 11:50:44;;;;;;;3.58;1.90;;;27.90;72.40;;;;;;5004521;28;20147;-59
2022/08/07 11:53:19;;;;;;;3.75;2.10;;;27.70;73.60;;;;;;5010706;28;20124;-59
2022/08/07 11:56:06;;;;;;;3.47;2.10;;;27.40;73.80;;;;;;5009558;28;20048;-59
2022/08/07 11:59:00;;;;;;;4.03;2.35;;;27.00;74.10;;;;;;5011759;28;20049;-59
2022/08/07 12:02:08;;;;;;;6.60;2.22;;;26.80;73.60;;;;;;5012451;28;20046;-60
2022/08/07 12:04:51;;;;;;;3.80;1.90;;;26.80;74.00;;;;;;5010307;28;20089;-59
2022/08/07 12:07:24;;;;;;;3.38;2.00;;;27.00;74.10;;;;;;5012361;28;20479;-60
2022/08/07 12:09:58;;;;;;;3.73;2.03;;;27.10;74.40;;;;;;5010255;28;20038;-59
2022/08/07 12:12:55;;;;;;;2.55;2.00;;;27.20;74.60;;;;;;5012351;28;20323;-58
2022/08/07 12:15:26;;;;;;;3.10;1.98;;;27.00;76.10;;;;;;5010884;28;20050;-59
2022/08/07 12:18:00;;;;;;;3.67;2.17;;;26.90;76.00;;;;;;5011112;28;20064;-62
2022/08/07 12:20:45;;;;;;;5.70;2.03;;;26.80;76.30;;;;;;5008900;28;20041;-59
2022/08/07 12:23:22;;;;;;;5.10;2.22;;;26.60;76.50;;;;;;5012346;28;20550;-59
2022/08/07 12:25:59;;;;;;;2.85;2.00;;;26.50;76.60;;;;;;5011834;28;20132;-60
2022/08/07 12:28:45;;;;;;;3.17;1.90;;;26.60;76.10;;;;;;5012143;28;20046;-58
2022/08/07 12:31:21;;;;;;;2.70;1.70;;;26.40;75.00;;;;;;5010584;28;20484;-60
2022/08/07 12:33:48;;;;;;;3.38;2.15;;;26.30;76.00;;;;;;5011827;28;20054;-59
2022/08/07 12:36:15;;;;;;;3.95;2.10;;;26.40;75.50;;;;;;5027000;28;20054;-59
2022/08/07 12:38:44;;;;;;;5.10;2.50;;;26.20;78.60;;;;;;5010627;28;20046;-59
2022/08/07 12:41:11;;;;;;;4.43;2.40;;;26.10;79.60;;;;;;5011849;28;20163;-59
2022/08/07 12:43:40;;;;;;;4.43;2.20;;;25.90;80.10;;;;;;5011621;28;20060;-63
2022/08/07 12:46:23;;;;;;;5.25;2.42;;;25.70;80.10;;;;;;5010389;28;20060;-61
2022/08/07 12:49:10;;;;;;;3.00;2.33;;;25.60;80.50;;;;;;5011115;28;20050;-60
2022/08/07 12:52:04;;;;;;;3.78;2.28;;;25.50;81.20;;;;;;5011846;28;20089;-61
2022/08/07 12:54:58;;;;;;;4.50;2.55;;;25.40;80.80;;;;;;5010739;28;20064;-60
2022/08/07 12:57:29;;;;;;;3.95;2.45;;;25.40;81.90;;;;;;5010482;28;20046;-60
2022/08/07 12:59:57;;;;;;;3.75;2.30;;;25.40;81.80;;;;;;5011477;28;20132;-60
2022/08/07 13:02:31;;;;;;;5.07;2.40;;;25.50;80.50;;;;;;5015021;28;20439;-60
2022/08/07 13:05:32;;;;;;;3.90;2.35;;;25.60;81.00;;;;;;5017839;28;20072;-60
2022/08/07 13:08:30;;;;;;;4.63;2.65;;;25.60;81.00;;;;;;5015730;28;20061;-61
2022/08/07 13:11:08;;;;;;;5.03;2.63;;;25.20;81.80;;;;;;5017508;28;20125;-60
2022/08/07 13:14:11;;;;;;;6.50;2.60;;;25.10;81.90;;;;;;5017942;28;20137;-60
2022/08/07 13:16:44;;;;;;;3.95;2.45;;;25.00;81.80;;;;;;5017647;28;20046;-59
2022/08/07 13:19:48;;;;;;;4.60;2.53;;;25.10;82.00;;;;;;5016884;28;20092;-61
2022/08/07 13:22:34;;;;;;;5.13;2.42;;;25.00;81.90;;;;;;5017258;28;20145;-59
2022/08/07 13:25:07;;;;;;;4.80;2.35;;;25.30;81.80;;;;;;5017437;28;20053;-59
2022/08/07 13:27:52;;;;;;;4.35;2.17;;;25.60;81.90;;;;;;5017903;28;20399;-60
2022/08/07 13:30:18;;;;;;;4.47;2.38;;;25.80;80.70;;;;;;5018259;28;20077;-59